Time;durP1;ratioP1;P1;durP2;ratioP2;P2;SDS_P1;SDS_P2;PMS_P1;PMS_P2;Temp;Humidity;BMP_temperature;BMP_pressure;BME280_temperature;BME280_humidity;BME280_pressure;Samples;Min_cycle;Max_cycle;Signal;HPM_P1;HPM_P2
2023/04/18 00:00:04;;;;;;;9.63;5.85;;;;;;;;;;7391119;19;20026;-75
2023/04/18 00:02:31;;;;;;;11.73;5.70;;;;;;;;;;7390317;19;20009;-76
2023/04/18 00:04:57;;;;;;;9.00;5.07;;;;;;;;;;7390947;19;20007;-76
2023/04/18 00:07:22;;;;;;;10.02;5.50;;;;;;;;;;7387701;19;20013;-76
2023/04/18 00:09:47;;;;;;;10.77;5.47;;;;;;;;;;7390420;19;20019;-76
2023/04/18 00:12:13;;;;;;;8.30;5.43;;;;;;;;;;7389373;19;20142;-76
2023/04/18 00:14:39;;;;;;;11.05;6.32;;;;;;;;;;7389844;19;20002;-76
2023/04/18 00:17:09;;;;;;;8.90;5.65;;;;;;;;;;7387898;19;20003;-75
2023/04/18 00:19:36;;;;;;;15.73;7.03;;;;;;;;;;7389754;19;20007;-76
2023/04/18 00:22:01;;;;;;;12.25;6.20;;;;;;;;;;7392568;19;20587;-77
2023/04/18 00:24:27;;;;;;;12.52;5.80;;;;;;;;;;7392497;19;20003;-75
2023/04/18 00:26:52;;;;;;;13.68;7.07;;;;;;;;;;7388670;19;20054;-77
2023/04/18 00:29:17;;;;;;;9.57;5.97;;;;;;;;;;7389567;19;20003;-76
2023/04/18 00:31:43;;;;;;;11.73;6.13;;;;;;;;;;7389195;19;20010;-75
2023/04/18 00:34:08;;;;;;;15.00;6.68;;;;;;;;;;7384742;19;20023;-76
2023/04/18 00:36:33;;;;;;;16.40;6.68;;;;;;;;;;7386002;19;20013;-76
2023/04/18 00:38:59;;;;;;;12.75;6.50;;;;;;;;;;7388233;19;20458;-77
2023/04/18 00:41:27;;;;;;;11.75;6.32;;;;;;;;;;7388953;19;20522;-76
2023/04/18 00:43:53;;;;;;;9.68;6.25;;;;;;;;;;7389012;19;20352;-76
2023/04/18 00:46:19;;;;;;;9.55;5.78;;;;;;;;;;7387570;19;20003;-75
2023/04/18 00:48:44;;;;;;;13.02;6.60;;;;;;;;;;7388865;19;20001;-76
2023/04/18 00:51:10;;;;;;;13.20;6.50;;;;;;;;;;7388150;19;19995;-75
2023/04/18 00:53:36;;;;;;;11.80;6.35;;;;;;;;;;7389332;19;20070;-74
2023/04/18 00:56:02;;;;;;;13.65;6.45;;;;;;;;;;7388616;19;20010;-76
2023/04/18 00:58:28;;;;;;;17.58;6.88;;;;;;;;;;7387073;19;20030;-76
2023/04/18 01:00:53;;;;;;;10.13;5.97;;;;;;;;;;7394495;19;19999;-75
2023/04/18 01:03:21;;;;;;;13.10;6.38;;;;;;;;;;7395408;19;20005;-75
2023/04/18 01:05:46;;;;;;;12.43;6.30;;;;;;;;;;7395751;19;20009;-76
2023/04/18 01:08:12;;;;;;;16.25;6.15;;;;;;;;;;7392361;19;19999;-76
2023/04/18 01:10:38;;;;;;;11.13;6.45;;;;;;;;;;7395306;19;20003;-76
2023/04/18 01:13:13;;;;;;;13.25;6.32;;;;;;;;;;7396582;19;20018;-74
2023/04/18 01:15:40;;;;;;;10.43;5.90;;;;;;;;;;7393985;19;20470;-76
2023/04/18 01:18:07;;;;;;;14.18;6.07;;;;;;;;;;7394881;19;20007;-75
2023/04/18 01:20:39;;;;;;;17.58;5.90;;;;;;;;;;7396433;19;20007;-76
2023/04/18 01:23:05;;;;;;;16.17;6.28;;;;;;;;;;7397412;19;20006;-75
2023/04/18 01:25:31;;;;;;;11.27;6.57;;;;;;;;;;7393907;19;20356;-75
2023/04/18 01:27:57;;;;;;;12.20;6.55;;;;;;;;;;7393725;19;20011;-76
2023/04/18 01:30:23;;;;;;;12.90;6.32;;;;;;;;;;7395172;19;19999;-76
2023/04/18 01:32:48;;;;;;;13.40;6.30;;;;;;;;;;7395894;19;20027;-76
2023/04/18 01:35:13;;;;;;;12.20;6.30;;;;;;;;;;7394526;19;20101;-75
2023/04/18 01:37:38;;;;;;;10.90;5.88;;;;;;;;;;7392775;19;20002;-74
2023/04/18 01:40:04;;;;;;;11.32;6.18;;;;;;;;;;7395806;19;20066;-75
2023/04/18 01:42:30;;;;;;;10.45;6.35;;;;;;;;;;7393673;19;20097;-76
2023/04/18 01:44:55;;;;;;;9.85;5.93;;;;;;;;;;7395042;19;20717;-75
2023/04/18 01:47:21;;;;;;;10.15;6.00;;;;;;;;;;7389960;19;20002;-76
2023/04/18 01:49:47;;;;;;;11.50;6.60;;;;;;;;;;7394934;19;20006;-75
2023/04/18 01:52:13;;;;;;;14.13;6.63;;;;;;;;;;7394005;19;20066;-77
2023/04/18 01:54:39;;;;;;;13.75;6.80;;;;;;;;;;7393799;19;20006;-75
2023/04/18 01:57:04;;;;;;;15.35;6.80;;;;;;;;;;7393816;19;20002;-77
2023/04/18 01:59:29;;;;;;;13.10;6.90;;;;;;;;;;7393480;19;20005;-76
2023/04/18 02:01:55;;;;;;;14.13;7.10;;;;;;;;;;7395091;19;20006;-75
2023/04/18 02:04:20;;;;;;;12.57;7.03;;;;;;;;;;7393133;19;20386;-75
2023/04/18 02:06:45;;;;;;;11.15;6.95;;;;;;;;;;7392811;19;20003;-77
2023/04/18 02:09:11;;;;;;;12.20;7.18;;;;;;;;;;7393072;19;20037;-76
2023/04/18 02:11:36;;;;;;;18.23;7.10;;;;;;;;;;7394183;19;20356;-75
2023/04/18 02:14:02;;;;;;;16.10;7.63;;;;;;;;;;7392549;19;20003;-76
2023/04/18 02:16:27;;;;;;;13.88;7.07;;;;;;;;;;7392189;19;20020;-75
2023/04/18 02:18:52;;;;;;;14.55;7.43;;;;;;;;;;7394850;19;19999;-77
2023/04/18 02:21:17;;;;;;;13.10;7.22;;;;;;;;;;7393449;19;20002;-75
2023/04/18 02:23:43;;;;;;;16.55;7.40;;;;;;;;;;7393737;19;19994;-76
2023/04/18 02:26:08;;;;;;;15.50;7.05;;;;;;;;;;7390832;19;19998;-77
2023/04/18 02:28:34;;;;;;;12.05;7.15;;;;;;;;;;7393644;19;19999;-75
2023/04/18 02:30:59;;;;;;;14.50;8.13;;;;;;;;;;7395529;19;20008;-76
2023/04/18 02:33:25;;;;;;;17.52;7.90;;;;;;;;;;7409036;19;20005;-75
2023/04/18 02:35:50;;;;;;;13.90;7.47;;;;;;;;;;7425669;19;20006;-75
2023/04/18 02:38:15;;;;;;;16.73;7.70;;;;;;;;;;7423986;19;20007;-75
2023/04/18 02:40:41;;;;;;;16.08;8.15;;;;;;;;;;7415045;19;20078;-75
2023/04/18 02:43:07;;;;;;;15.38;7.57;;;;;;;;;;7396952;19;20010;-75
2023/04/18 02:45:32;;;;;;;15.52;6.95;;;;;;;;;;7395551;19;20002;-75
2023/04/18 02:47:57;;;;;;;15.55;8.27;;;;;;;;;;7393472;19;20037;-76
2023/04/18 02:50:23;;;;;;;15.25;7.65;;;;;;;;;;7392857;19;20005;-74
2023/04/18 02:52:49;;;;;;;13.57;7.80;;;;;;;;;;7393310;19;19999;-75
2023/04/18 02:55:15;;;;;;;16.00;7.57;;;;;;;;;;7396808;19;20005;-77
2023/04/18 02:57:40;;;;;;;16.75;8.05;;;;;;;;;;7394136;19;20015;-77
2023/04/18 03:00:06;;;;;;;16.17;7.93;;;;;;;;;;7394719;19;20480;-75
2023/04/18 03:02:32;;;;;;;13.18;8.00;;;;;;;;;;7392568;19;20351;-76
2023/04/18 03:04:57;;;;;;;14.32;7.70;;;;;;;;;;7392140;19;20006;-76
2023/04/18 03:07:22;;;;;;;16.17;8.60;;;;;;;;;;7388593;19;20006;-75
2023/04/18 03:09:48;;;;;;;16.52;7.65;;;;;;;;;;7394532;19;20009;-75
2023/04/18 03:12:13;;;;;;;15.10;8.35;;;;;;;;;;7393714;19;20370;-75
2023/04/18 03:14:38;;;;;;;16.13;8.25;;;;;;;;;;7392490;19;20007;-76
2023/04/18 03:17:04;;;;;;;14.65;8.27;;;;;;;;;;7391920;19;20002;-76
2023/04/18 03:19:30;;;;;;;18.42;8.70;;;;;;;;;;7390694;19;20006;-75
2023/04/18 03:21:56;;;;;;;13.55;8.85;;;;;;;;;;7392938;19;20054;-76
2023/04/18 03:24:21;;;;;;;15.90;9.05;;;;;;;;;;7390602;19;20020;-76
2023/04/18 03:26:47;;;;;;;16.92;9.35;;;;;;;;;;7390897;19;20002;-76
2023/04/18 03:29:12;;;;;;;18.42;9.30;;;;;;;;;;7391063;19;20023;-77
2023/04/18 03:31:38;;;;;;;17.00;8.63;;;;;;;;;;7392122;19;20009;-76
2023/04/18 03:34:03;;;;;;;17.50;9.52;;;;;;;;;;7391705;19;20208;-77
2023/04/18 03:36:30;;;;;;;16.50;9.13;;;;;;;;;;7389891;19;20630;-77
2023/04/18 03:38:55;;;;;;;15.32;8.20;;;;;;;;;;7392031;19;20604;-74
2023/04/18 03:41:21;;;;;;;17.35;9.35;;;;;;;;;;7391201;19;20010;-75
2023/04/18 03:43:46;;;;;;;16.95;9.55;;;;;;;;;;7389306;19;20019;-77
2023/04/18 03:46:11;;;;;;;17.00;9.75;;;;;;;;;;7387199;19;20018;-76
2023/04/18 03:48:37;;;;;;;20.25;9.27;;;;;;;;;;7391812;19;20015;-76
2023/04/18 03:51:02;;;;;;;16.15;9.20;;;;;;;;;;7392603;19;20666;-76
2023/04/18 03:53:27;;;;;;;18.30;10.00;;;;;;;;;;7390979;19;20003;-75
2023/04/18 03:55:53;;;;;;;19.60;10.10;;;;;;;;;;7390767;19;20002;-76
2023/04/18 03:58:22;;;;;;;20.67;10.88;;;;;;;;;;7389378;19;20011;-75
2023/04/18 04:00:51;;;;;;;17.45;10.05;;;;;;;;;;7391127;19;20575;-76
2023/04/18 04:03:17;;;;;;;19.58;10.88;;;;;;;;;;7390370;19;20421;-77
2023/04/18 04:05:42;;;;;;;17.60;9.68;;;;;;;;;;7389750;19;20007;-78
2023/04/18 04:08:07;;;;;;;19.83;10.82;;;;;;;;;;7388815;19;19998;-77
2023/04/18 04:10:32;;;;;;;17.02;9.35;;;;;;;;;;7391023;19;20037;-75
2023/04/18 04:12:58;;;;;;;18.05;10.90;;;;;;;;;;7390362;19;20063;-76
2023/04/18 04:15:23;;;;;;;19.77;10.50;;;;;;;;;;7389911;19;20014;-76
2023/04/18 04:17:49;;;;;;;16.80;9.95;;;;;;;;;;7382379;19;20011;-76
2023/04/18 04:20:20;;;;;;;23.08;10.52;;;;;;;;;;7385984;19;20082;-76
2023/04/18 04:22:45;;;;;;;18.35;10.48;;;;;;;;;;7389437;19;20013;-76
2023/04/18 04:25:12;;;;;;;18.38;10.40;;;;;;;;;;7389145;19;20002;-77
2023/04/18 04:27:38;;;;;;;21.92;11.50;;;;;;;;;;7388829;19;20712;-77
2023/04/18 04:30:04;;;;;;;22.67;11.35;;;;;;;;;;7391631;19;20002;-75
2023/04/18 04:32:29;;;;;;;23.38;12.18;;;;;;;;;;7391063;19;20006;-75
2023/04/18 04:34:55;;;;;;;18.48;11.18;;;;;;;;;;7391290;19;20002;-76
2023/04/18 04:37:20;;;;;;;21.00;11.60;;;;;;;;;;7391372;19;20007;-76
2023/04/18 04:39:46;;;;;;;25.27;11.77;;;;;;;;;;7392704;19;20025;-75
2023/04/18 04:42:12;;;;;;;22.20;10.60;;;;;;;;;;7391483;19;20007;-76
2023/04/18 04:44:40;;;;;;;19.15;11.55;;;;;;;;;;7392389;19;20017;-76
2023/04/18 04:47:06;;;;;;;26.20;12.45;;;;;;;;;;7390522;19;20355;-75
2023/04/18 04:49:31;;;;;;;24.90;11.38;;;;;;;;;;7392600;19;20007;-75
2023/04/18 04:51:56;;;;;;;21.48;11.63;;;;;;;;;;7394187;19;20010;-75
2023/04/18 04:54:22;;;;;;;25.60;11.95;;;;;;;;;;7395924;19;20062;-75
2023/04/18 04:56:47;;;;;;;19.55;11.70;;;;;;;;;;7392412;19;19998;-75
2023/04/18 04:59:12;;;;;;;19.80;10.73;;;;;;;;;;7403671;19;20041;-74
2023/04/18 05:01:38;;;;;;;20.77;10.05;;;;;;;;;;7395208;19;20018;-73
2023/04/18 05:04:04;;;;;;;21.60;12.23;;;;;;;;;;7395399;19;20010;-73
2023/04/18 05:06:30;;;;;;;22.35;12.05;;;;;;;;;;7389250;19;20397;-75
2023/04/18 05:08:56;;;;;;;23.00;12.27;;;;;;;;;;7393936;19;20006;-74
2023/04/18 05:11:22;;;;;;;23.52;11.55;;;;;;;;;;7393319;19;20013;-74
2023/04/18 05:13:47;;;;;;;22.13;10.80;;;;;;;;;;7384503;19;20010;-74
2023/04/18 05:16:12;;;;;;;16.23;7.43;;;;;;;;;;7369705;19;20014;-74
2023/04/18 05:18:39;;;;;;;18.38;9.95;;;;;;;;;;7394827;19;20106;-72
2023/04/18 05:21:05;;;;;;;21.67;11.13;;;;;;;;;;7393907;19;20097;-75
2023/04/18 05:23:31;;;;;;;17.58;10.40;;;;;;;;;;7394479;19;20011;-72
2023/04/18 05:25:57;;;;;;;18.55;10.98;;;;;;;;;;7388351;19;20569;-72
2023/04/18 05:28:25;;;;;;;20.50;11.27;;;;;;;;;;7395122;19;20006;-72
2023/04/18 05:30:51;;;;;;;16.60;9.73;;;;;;;;;;7393292;19;20003;-72
2023/04/18 05:33:16;;;;;;;19.27;10.20;;;;;;;;;;7396401;19;20023;-71
2023/04/18 05:35:42;;;;;;;16.73;9.75;;;;;;;;;;7394487;19;20002;-71
2023/04/18 05:38:07;;;;;;;18.88;9.90;;;;;;;;;;7389659;19;20010;-72
2023/04/18 05:40:32;;;;;;;18.67;9.15;;;;;;;;;;7394407;19;20037;-71
2023/04/18 05:42:59;;;;;;;14.52;7.57;;;;;;;;;;7395041;19;20010;-71
2023/04/18 05:45:24;;;;;;;16.25;9.07;;;;;;;;;;7393579;19;20007;-71
2023/04/18 05:47:50;;;;;;;14.13;8.25;;;;;;;;;;7391614;19;20017;-71
2023/04/18 05:50:15;;;;;;;18.08;9.52;;;;;;;;;;7394339;19;20011;-72
2023/04/18 05:52:40;;;;;;;16.85;8.60;;;;;;;;;;7394893;19;20027;-72
2023/04/18 05:55:06;;;;;;;16.85;7.68;;;;;;;;;;7393949;19;20010;-72
2023/04/18 05:57:31;;;;;;;14.27;8.48;;;;;;;;;;7392467;19;20510;-72
2023/04/18 05:59:57;;;;;;;13.73;8.30;;;;;;;;;;7392741;19;20036;-72
2023/04/18 06:02:22;;;;;;;11.70;6.90;;;;;;;;;;7393739;19;20416;-72
2023/04/18 06:04:47;;;;;;;12.25;7.55;;;;;;;;;;7392291;19;20546;-72
2023/04/18 06:07:13;;;;;;;15.88;7.90;;;;;;;;;;7389517;19;20523;-71
2023/04/18 06:09:38;;;;;;;11.57;5.18;;;;;;;;;;7393208;19;20072;-72
2023/04/18 06:12:04;;;;;;;14.20;8.57;;;;;;;;;;7394119;19;20003;-71
2023/04/18 06:14:29;;;;;;;13.68;7.53;;;;;;;;;;7393371;19;20022;-71
2023/04/18 06:16:55;;;;;;;13.45;7.80;;;;;;;;;;7392466;19;20002;-73
2023/04/18 06:19:20;;;;;;;13.93;7.45;;;;;;;;;;7394066;19;20002;-72
2023/04/18 06:21:47;;;;;;;11.55;7.03;;;;;;;;;;7392743;19;20010;-72
2023/04/18 06:24:13;;;;;;;11.15;6.38;;;;;;;;;;7390876;19;20036;-72
2023/04/18 06:26:38;;;;;;;13.10;8.00;;;;;;;;;;7392089;19;20010;-71
2023/04/18 06:29:03;;;;;;;8.65;5.03;;;;;;;;;;7393330;19;20019;-71
2023/04/18 06:31:29;;;;;;;15.77;7.45;;;;;;;;;;7393784;19;20014;-71
2023/04/18 06:33:54;;;;;;;12.23;6.47;;;;;;;;;;7394040;19;20029;-72
2023/04/18 06:36:20;;;;;;;14.25;8.20;;;;;;;;;;7393617;19;20344;-71
2023/04/18 06:38:45;;;;;;;13.63;7.90;;;;;;;;;;7400814;19;20494;-71
2023/04/18 06:41:13;;;;;;;13.65;7.90;;;;;;;;;;7421319;19;20011;-72
2023/04/18 06:43:38;;;;;;;10.85;6.70;;;;;;;;;;7423506;19;20032;-72
2023/04/18 06:46:04;;;;;;;15.30;8.13;;;;;;;;;;7403610;19;20003;-70
2023/04/18 06:48:30;;;;;;;15.05;8.15;;;;;;;;;;7393926;19;19998;-71
2023/04/18 06:50:55;;;;;;;12.32;7.30;;;;;;;;;;7391779;19;20018;-71
2023/04/18 06:53:20;;;;;;;14.63;6.65;;;;;;;;;;7392581;19;20008;-71
2023/04/18 06:55:46;;;;;;;11.88;7.45;;;;;;;;;;7391692;19;20078;-73
2023/04/18 06:58:14;;;;;;;13.57;7.35;;;;;;;;;;7386975;19;20040;-71
2023/04/18 07:00:40;;;;;;;14.50;8.20;;;;;;;;;;7391044;19;20333;-72
2023/04/18 07:03:08;;;;;;;14.13;7.22;;;;;;;;;;7393034;19;20018;-71
2023/04/18 07:05:37;;;;;;;10.50;6.28;;;;;;;;;;7390567;19;20007;-71
2023/04/18 07:08:02;;;;;;;16.08;8.00;;;;;;;;;;7390622;19;20465;-71
2023/04/18 07:10:28;;;;;;;13.18;7.93;;;;;;;;;;7393258;19;19998;-71
2023/04/18 07:12:53;;;;;;;10.57;6.07;;;;;;;;;;7394533;19;20009;-70
2023/04/18 07:15:19;;;;;;;9.30;5.20;;;;;;;;;;7397228;19;20010;-71
2023/04/18 07:17:44;;;;;;;13.25;7.75;;;;;;;;;;7392268;19;20028;-71
2023/04/18 07:20:10;;;;;;;13.43;8.20;;;;;;;;;;7390257;19;20020;-71
2023/04/18 07:22:35;;;;;;;10.90;5.97;;;;;;;;;;7391092;19;20006;-72
2023/04/18 07:25:00;;;;;;;14.20;7.45;;;;;;;;;;7391939;19;20384;-72
2023/04/18 07:27:27;;;;;;;12.52;6.40;;;;;;;;;;7386456;19;20007;-71
2023/04/18 07:29:53;;;;;;;15.40;7.78;;;;;;;;;;7390672;19;20079;-71
2023/04/18 07:32:18;;;;;;;13.90;7.65;;;;;;;;;;7390937;19;20010;-71
2023/04/18 07:34:43;;;;;;;11.75;6.10;;;;;;;;;;7391718;19;20006;-71
2023/04/18 07:37:09;;;;;;;15.32;6.40;;;;;;;;;;7388640;19;20420;-71
2023/04/18 07:39:35;;;;;;;13.57;7.43;;;;;;;;;;7391403;19;20002;-72
2023/04/18 07:42:02;;;;;;;10.45;6.40;;;;;;;;;;7392242;19;20336;-71
2023/04/18 07:44:27;;;;;;;11.85;5.72;;;;;;;;;;7393663;19;20007;-71
2023/04/18 07:46:52;;;;;;;10.65;6.30;;;;;;;;;;7392810;19;20066;-72
2023/04/18 07:49:18;;;;;;;13.25;7.20;;;;;;;;;;7391251;19;20020;-70
2023/04/18 07:51:43;;;;;;;11.68;5.88;;;;;;;;;;7390980;19;20006;-71
2023/04/18 07:54:09;;;;;;;12.30;6.72;;;;;;;;;;7389893;19;20001;-71
2023/04/18 07:56:35;;;;;;;12.57;7.53;;;;;;;;;;7387535;19;20074;-71
2023/04/18 07:59:00;;;;;;;11.88;7.07;;;;;;;;;;7391327;19;19998;-71
2023/04/18 08:01:26;;;;;;;12.68;7.35;;;;;;;;;;7391036;19;20013;-71
2023/04/18 08:03:53;;;;;;;14.65;7.53;;;;;;;;;;7390851;19;20456;-72
2023/04/18 08:06:20;;;;;;;12.43;7.45;;;;;;;;;;7388924;19;20015;-71
2023/04/18 08:08:45;;;;;;;12.90;7.30;;;;;;;;;;7389758;19;20001;-71
2023/04/18 08:11:10;;;;;;;12.55;7.00;;;;;;;;;;7397741;19;20002;-72
2023/04/18 08:13:36;;;;;;;16.92;7.65;;;;;;;;;;7398889;19;20527;-72
2023/04/18 08:16:01;;;;;;;15.23;7.72;;;;;;;;;;7396663;19;20066;-71
2023/04/18 08:18:27;;;;;;;11.23;6.90;;;;;;;;;;7397692;19;20036;-71
2023/04/18 08:20:52;;;;;;;9.68;5.30;;;;;;;;;;7397555;19;20002;-72
2023/04/18 08:23:18;;;;;;;9.98;5.30;;;;;;;;;;7395058;19;20037;-71
2023/04/18 08:25:43;;;;;;;11.48;7.20;;;;;;;;;;7396668;19;19998;-72
2023/04/18 08:28:09;;;;;;;10.65;6.32;;;;;;;;;;7395694;19;20038;-73
2023/04/18 08:30:34;;;;;;;13.95;6.53;;;;;;;;;;7399813;19;19999;-72
2023/04/18 08:33:00;;;;;;;13.18;6.60;;;;;;;;;;7399504;19;20016;-72
2023/04/18 08:35:25;;;;;;;8.88;4.97;;;;;;;;;;7398280;19;20001;-72
2023/04/18 08:37:51;;;;;;;8.68;4.97;;;;;;;;;;7395788;19;20003;-72
2023/04/18 08:40:17;;;;;;;7.65;4.35;;;;;;;;;;7397723;19;20002;-73
2023/04/18 08:42:46;;;;;;;12.63;7.65;;;;;;;;;;7395738;19;20124;-74
2023/04/18 08:45:15;;;;;;;11.88;6.72;;;;;;;;;;7397550;19;20010;-72
2023/04/18 08:47:41;;;;;;;10.50;5.40;;;;;;;;;;7395135;19;20027;-73
2023/04/18 08:50:08;;;;;;;10.63;6.53;;;;;;;;;;7397083;19;20011;-73
2023/04/18 08:52:36;;;;;;;9.45;4.93;;;;;;;;;;7398049;19;20536;-72
2023/04/18 08:55:02;;;;;;;12.38;6.80;;;;;;;;;;7398943;19;19994;-72
2023/04/18 08:57:29;;;;;;;10.90;5.72;;;;;;;;;;7392908;19;20014;-71
2023/04/18 08:59:55;;;;;;;10.25;5.70;;;;;;;;;;7393843;19;20527;-72
2023/04/18 09:02:22;;;;;;;15.70;7.10;;;;;;;;;;7397529;19;20024;-73
2023/04/18 09:04:51;;;;;;;10.35;5.55;;;;;;;;;;7397654;19;20400;-71
2023/04/18 09:07:18;;;;;;;9.43;5.57;;;;;;;;;;7393995;19;20007;-71
2023/04/18 09:09:45;;;;;;;8.23;4.60;;;;;;;;;;7397355;19;20329;-71
2023/04/18 09:12:13;;;;;;;11.35;6.47;;;;;;;;;;7393469;19;20530;-72
2023/04/18 09:14:45;;;;;;;11.38;6.07;;;;;;;;;;7397569;19;20044;-72
2023/04/18 09:17:13;;;;;;;12.15;5.90;;;;;;;;;;7393111;19;20010;-71
2023/04/18 09:19:49;;;;;;;11.05;6.72;;;;;;;;;;7397295;19;20006;-71
2023/04/18 09:22:16;;;;;;;11.13;5.82;;;;;;;;;;7394062;19;20388;-72
2023/04/18 09:24:51;;;;;;;11.77;6.70;;;;;;;;;;7393487;19;20031;-72
2023/04/18 09:27:17;;;;;;;11.15;5.43;;;;;;;;;;7392347;19;20543;-72
2023/04/18 09:29:45;;;;;;;10.23;5.80;;;;;;;;;;7401238;19;20367;-71
2023/04/18 09:32:19;;;;;;;10.60;5.95;;;;;;;;;;7395347;19;20014;-73
2023/04/18 09:34:45;;;;;;;8.48;5.13;;;;;;;;;;7394702;19;20002;-72
2023/04/18 09:37:12;;;;;;;7.80;4.45;;;;;;;;;;7391628;19;20110;-72
2023/04/18 09:39:41;;;;;;;8.70;5.30;;;;;;;;;;7394083;19;20005;-72
2023/04/18 09:42:07;;;;;;;9.13;5.60;;;;;;;;;;7395633;19;20010;-72
2023/04/18 09:44:32;;;;;;;8.35;4.70;;;;;;;;;;7394931;19;20331;-73
2023/04/18 09:46:58;;;;;;;9.25;5.90;;;;;;;;;;7393301;19;20066;-72
2023/04/18 09:49:27;;;;;;;8.93;5.47;;;;;;;;;;7392807;19;20019;-73
2023/04/18 09:51:53;;;;;;;9.20;5.10;;;;;;;;;;7394948;19;20010;-73
2023/04/18 09:54:22;;;;;;;10.95;5.38;;;;;;;;;;7391739;19;20014;-72
2023/04/18 09:56:50;;;;;;;11.45;6.43;;;;;;;;;;7392643;19;20017;-72
2023/04/18 09:59:35;;;;;;;11.15;6.70;;;;;;;;;;7369991;19;20451;-72
2023/04/18 10:02:02;;;;;;;10.40;5.70;;;;;;;;;;7395532;19;20100;-71
2023/04/18 10:04:29;;;;;;;10.13;5.90;;;;;;;;;;7391295;19;20032;-72
2023/04/18 10:06:55;;;;;;;10.95;6.60;;;;;;;;;;7387500;19;20010;-72
2023/04/18 10:09:21;;;;;;;10.40;6.28;;;;;;;;;;7388956;19;20062;-72
2023/04/18 10:11:46;;;;;;;10.27;6.15;;;;;;;;;;7390655;19;20438;-72
2023/04/18 10:14:14;;;;;;;13.02;5.40;;;;;;;;;;7388649;19;20003;-72
2023/04/18 10:16:40;;;;;;;12.30;6.30;;;;;;;;;;7387879;19;20787;-71
2023/04/18 10:19:20;;;;;;;8.70;5.72;;;;;;;;;;7392517;19;19999;-72
2023/04/18 10:21:56;;;;;;;11.00;5.88;;;;;;;;;;7394296;19;20011;-73
2023/04/18 10:24:53;;;;;;;8.57;4.85;;;;;;;;;;7391976;19;20013;-72
2023/04/18 10:27:59;;;;;;;10.43;5.63;;;;;;;;;;7390847;19;20005;-72
2023/04/18 10:30:38;;;;;;;10.32;5.22;;;;;;;;;;7392471;19;20391;-71
2023/04/18 10:33:25;;;;;;;11.40;6.35;;;;;;;;;;7395104;19;20024;-72
2023/04/18 10:35:57;;;;;;;11.00;6.50;;;;;;;;;;7394055;19;20019;-72
2023/04/18 10:38:23;;;;;;;11.32;6.00;;;;;;;;;;7413540;19;20006;-72
2023/04/18 10:40:48;;;;;;;7.55;4.07;;;;;;;;;;7422426;19;20018;-72
2023/04/18 10:43:14;;;;;;;9.77;5.65;;;;;;;;;;7416472;19;20025;-73
2023/04/18 10:45:39;;;;;;;8.35;3.63;;;;;;;;;;7396511;19;20030;-72
2023/04/18 10:48:30;;;;;;;8.43;3.78;;;;;;;;;;7388550;19;20444;-72
2023/04/18 10:51:17;;;;;;;8.82;5.80;;;;;;;;;;7388962;19;20465;-72
2023/04/18 10:53:50;;;;;;;8.88;4.15;;;;;;;;;;7391220;19;20530;-74
2023/04/18 10:56:15;;;;;;;7.43;4.60;;;;;;;;;;7389962;19;20009;-74
2023/04/18 10:58:46;;;;;;;7.97;4.60;;;;;;;;;;7392287;19;19998;-73
2023/04/18 11:01:13;;;;;;;7.45;4.53;;;;;;;;;;7392510;19;20018;-74
2023/04/18 11:03:39;;;;;;;8.63;4.93;;;;;;;;;;7393648;19;20011;-74
2023/04/18 11:06:05;;;;;;;8.80;5.78;;;;;;;;;;7387786;19;20002;-74
2023/04/18 11:08:30;;;;;;;7.63;5.07;;;;;;;;;;7388684;19;20342;-75
2023/04/18 11:10:59;;;;;;;7.78;5.25;;;;;;;;;;7391720;19;20005;-74
2023/04/18 11:13:24;;;;;;;13.10;5.45;;;;;;;;;;7394573;19;20348;-74
2023/04/18 11:15:49;;;;;;;8.02;4.85;;;;;;;;;;7391913;19;19991;-76
2023/04/18 11:18:15;;;;;;;8.25;4.85;;;;;;;;;;7387548;19;20357;-74
2023/04/18 11:20:50;;;;;;;9.18;5.40;;;;;;;;;;7391449;19;20002;-72
2023/04/18 11:23:19;;;;;;;10.70;5.35;;;;;;;;;;7392575;19;20023;-74
2023/04/18 11:25:45;;;;;;;9.95;5.03;;;;;;;;;;7392075;19;19998;-75
2023/04/18 11:28:15;;;;;;;8.48;4.72;;;;;;;;;;7387010;19;20358;-74
2023/04/18 11:30:41;;;;;;;11.73;6.28;;;;;;;;;;7390412;19;19998;-73
2023/04/18 11:33:11;;;;;;;8.00;4.82;;;;;;;;;;7392342;19;19999;-74
2023/04/18 11:35:41;;;;;;;6.90;4.55;;;;;;;;;;7391763;19;20002;-76
2023/04/18 11:38:07;;;;;;;7.85;4.80;;;;;;;;;;7389100;19;20002;-74
2023/04/18 11:40:34;;;;;;;9.60;4.00;;;;;;;;;;7389587;19;20007;-74
2023/04/18 11:43:01;;;;;;;8.13;4.57;;;;;;;;;;7404245;19;20007;-75
2023/04/18 11:45:26;;;;;;;7.95;4.00;;;;;;;;;;7395818;19;20336;-75
2023/04/18 11:47:56;;;;;;;8.80;5.40;;;;;;;;;;7389546;19;20019;-75
2023/04/18 11:50:22;;;;;;;7.47;4.78;;;;;;;;;;7389533;19;20022;-74
2023/04/18 11:52:52;;;;;;;6.93;4.70;;;;;;;;;;7390028;19;20070;-74
2023/04/18 11:55:23;;;;;;;8.18;3.63;;;;;;;;;;7391108;19;20005;-74
2023/04/18 11:57:56;;;;;;;6.97;4.15;;;;;;;;;;7389460;19;20081;-74
2023/04/18 12:00:37;;;;;;;8.90;4.15;;;;;;;;;;7387803;19;20007;-74
2023/04/18 12:03:04;;;;;;;10.43;4.13;;;;;;;;;;7389309;19;20384;-74
2023/04/18 12:05:35;;;;;;;7.95;4.65;;;;;;;;;;7391206;19;20001;-74
2023/04/18 12:08:16;;;;;;;13.68;5.88;;;;;;;;;;7388018;19;20029;-72
2023/04/18 12:10:49;;;;;;;11.40;5.70;;;;;;;;;;7387677;19;20082;-72
2023/04/18 12:13:15;;;;;;;7.97;4.15;;;;;;;;;;7389768;19;20475;-71
2023/04/18 12:15:43;;;;;;;9.63;5.15;;;;;;;;;;7390324;19;20015;-72
2023/04/18 12:18:11;;;;;;;10.20;4.25;;;;;;;;;;7384724;19;20060;-71
2023/04/18 12:20:51;;;;;;;12.57;5.13;;;;;;;;;;7389009;19;20027;-72
2023/04/18 12:23:36;;;;;;;7.63;4.37;;;;;;;;;;7390008;19;20031;-73
2023/04/18 12:26:06;;;;;;;8.63;5.00;;;;;;;;;;7377917;19;20006;-73
2023/04/18 12:28:33;;;;;;;7.05;4.13;;;;;;;;;;7389570;19;20023;-71
2023/04/18 12:30:59;;;;;;;5.68;3.40;;;;;;;;;;7390501;19;20492;-72
2023/04/18 12:33:25;;;;;;;8.20;4.57;;;;;;;;;;7389096;19;20023;-71
2023/04/18 12:35:51;;;;;;;6.25;3.97;;;;;;;;;;7388422;19;20006;-73
2023/04/18 12:38:21;;;;;;;7.18;4.25;;;;;;;;;;7387078;19;20351;-72
2023/04/18 12:40:46;;;;;;;5.18;2.95;;;;;;;;;;7388295;19;20531;-72
2023/04/18 12:43:11;;;;;;;8.63;4.32;;;;;;;;;;7386215;19;20019;-71
2023/04/18 12:45:37;;;;;;;8.18;4.18;;;;;;;;;;7389209;19;20073;-71
2023/04/18 12:48:02;;;;;;;7.25;4.22;;;;;;;;;;7383461;19;20282;-73
2023/04/18 12:50:27;;;;;;;7.45;3.92;;;;;;;;;;7385200;19;19999;-71
2023/04/18 12:52:55;;;;;;;8.10;4.20;;;;;;;;;;7388049;19;20026;-72
2023/04/18 12:55:24;;;;;;;6.22;3.30;;;;;;;;;;7388145;19;20014;-72
2023/04/18 12:57:53;;;;;;;7.53;4.50;;;;;;;;;;7391062;19;20109;-72
2023/04/18 13:00:19;;;;;;;7.13;4.28;;;;;;;;;;7393641;19;20003;-71
2023/04/18 13:02:44;;;;;;;7.72;4.10;;;;;;;;;;7397343;19;20007;-72
2023/04/18 13:05:14;;;;;;;9.18;4.03;;;;;;;;;;7395630;19;20019;-72
2023/04/18 13:07:41;;;;;;;6.25;3.58;;;;;;;;;;7391171;19;20371;-72
2023/04/18 13:10:11;;;;;;;9.88;4.43;;;;;;;;;;7395284;19;20023;-72
2023/04/18 13:12:39;;;;;;;7.55;4.25;;;;;;;;;;7397947;19;19999;-71
2023/04/18 13:15:05;;;;;;;6.80;3.83;;;;;;;;;;7398572;19;19995;-71
2023/04/18 13:17:32;;;;;;;5.72;3.60;;;;;;;;;;7394682;19;20369;-71
2023/04/18 13:19:58;;;;;;;6.78;3.63;;;;;;;;;;7398510;19;20370;-73
2023/04/18 13:22:24;;;;;;;5.05;2.67;;;;;;;;;;7394651;19;20061;-71
2023/04/18 13:24:49;;;;;;;4.43;2.45;;;;;;;;;;7393923;19;20350;-71
2023/04/18 13:27:15;;;;;;;4.40;2.10;;;;;;;;;;7390375;19;20008;-72
2023/04/18 13:29:42;;;;;;;5.55;3.05;;;;;;;;;;7395768;19;20005;-72
2023/04/18 13:32:08;;;;;;;7.40;2.97;;;;;;;;;;7393916;19;20003;-71
2023/04/18 13:34:36;;;;;;;3.92;2.53;;;;;;;;;;7395017;19;20471;-71
2023/04/18 13:37:02;;;;;;;4.38;2.50;;;;;;;;;;7393838;19;20034;-72
2023/04/18 13:39:30;;;;;;;5.00;3.08;;;;;;;;;;7394013;19;20467;-71
2023/04/18 13:41:55;;;;;;;3.83;2.42;;;;;;;;;;7393740;19;20023;-72
2023/04/18 13:44:20;;;;;;;5.85;2.92;;;;;;;;;;7394453;19;19999;-72
2023/04/18 13:46:46;;;;;;;5.50;3.03;;;;;;;;;;7393318;19;20016;-73
2023/04/18 13:49:12;;;;;;;5.43;3.45;;;;;;;;;;7393344;19;20002;-72
2023/04/18 13:51:37;;;;;;;4.88;2.88;;;;;;;;;;7394871;19;20329;-72
2023/04/18 13:54:03;;;;;;;4.40;2.83;;;;;;;;;;7395505;19;19994;-72
2023/04/18 13:56:28;;;;;;;4.65;2.80;;;;;;;;;;7394906;19;20489;-72
2023/04/18 13:58:54;;;;;;;6.75;3.10;;;;;;;;;;7397325;19;20506;-71
2023/04/18 14:01:21;;;;;;;4.32;2.83;;;;;;;;;;7394908;19;20006;-71
2023/04/18 14:03:46;;;;;;;3.85;2.08;;;;;;;;;;7395160;19;20388;-70
2023/04/18 14:06:12;;;;;;;4.93;2.83;;;;;;;;;;7392833;19;20010;-72
2023/04/18 14:08:37;;;;;;;4.32;2.72;;;;;;;;;;7393645;19;20003;-71
2023/04/18 14:11:03;;;;;;;5.50;2.80;;;;;;;;;;7395189;19;19991;-72
2023/04/18 14:13:28;;;;;;;5.72;3.08;;;;;;;;;;7394896;19;20005;-71
2023/04/18 14:15:53;;;;;;;5.75;3.20;;;;;;;;;;7395353;19;20327;-71
2023/04/18 14:18:20;;;;;;;5.38;3.25;;;;;;;;;;7393361;19;20459;-71
2023/04/18 14:20:47;;;;;;;5.25;3.33;;;;;;;;;;7394602;19;20006;-71
2023/04/18 14:23:13;;;;;;;5.45;3.00;;;;;;;;;;7393771;19;20008;-71
2023/04/18 14:25:39;;;;;;;6.78;3.50;;;;;;;;;;7394141;19;20023;-73
2023/04/18 14:28:09;;;;;;;5.78;3.45;;;;;;;;;;7391778;19;20006;-73
2023/04/18 14:30:37;;;;;;;7.25;3.80;;;;;;;;;;7393129;19;19999;-71